createdAt,value
2023-02-19T00:00:30.588Z,67.58
2023-02-19T00:03:19.953Z,67.55
2023-02-19T00:05:49.247Z,67.50
2023-02-19T00:08:18.605Z,67.56
2023-02-19T00:10:47.777Z,67.50
2023-02-19T00:13:19.073Z,67.69
2023-02-19T00:15:48.308Z,67.45
2023-02-19T00:18:17.735Z,67.53
2023-02-19T00:20:47.139Z,67.55
2023-02-19T00:23:16.589Z,67.73
2023-02-19T00:25:45.726Z,67.76
2023-02-19T00:28:15.088Z,67.80
2023-02-19T00:30:45.782Z,67.93
2023-02-19T00:33:15.519Z,67.93
2023-02-19T00:35:44.877Z,67.85
2023-02-19T00:38:14.255Z,68.00
2023-02-19T00:40:43.570Z,67.83
2023-02-19T00:43:13.525Z,68.05
2023-02-19T00:45:42.545Z,68.07
2023-02-19T00:48:13.412Z,68.17
2023-02-19T00:50:43.284Z,68.16
2023-02-19T00:53:12.627Z,68.23
2023-02-19T00:55:41.790Z,68.44
2023-02-19T00:58:11.130Z,68.37
2023-02-19T01:00:40.417Z,68.09
2023-02-19T01:03:09.767Z,68.10
2023-02-19T01:05:40.492Z,68.02
2023-02-19T01:08:09.953Z,68.24
2023-02-19T01:10:39.011Z,68.21
2023-02-19T01:13:08.520Z,68.38
2023-02-19T01:15:37.768Z,68.28
2023-02-19T01:18:07.297Z,68.39
2023-02-19T01:20:36.479Z,68.27
2023-02-19T01:23:07.344Z,68.29
2023-02-19T01:25:38.989Z,68.58
2023-02-19T01:28:09.245Z,68.50
2023-02-19T01:30:38.731Z,68.86
2023-02-19T01:33:09.661Z,68.84
2023-02-19T01:35:41.031Z,69.23
2023-02-19T01:38:12.017Z,69.16
2023-02-19T01:40:41.194Z,69.28
2023-02-19T01:43:17.116Z,69.41
2023-02-19T01:45:47.627Z,69.67
2023-02-19T01:48:21.712Z,69.49
2023-02-19T01:50:55.536Z,69.28
2023-02-19T01:53:31.719Z,69.47
2023-02-19T01:56:02.190Z,69.39
2023-02-19T01:58:35.594Z,69.61
2023-02-19T02:01:08.108Z,69.50
2023-02-19T02:03:40.029Z,69.92
2023-02-19T02:06:16.830Z,69.47
2023-02-19T02:09:06.051Z,69.35
2023-02-19T02:11:35.501Z,69.64
2023-02-19T02:14:06.465Z,69.68
2023-02-19T02:16:40.668Z,69.50
2023-02-19T02:19:31.746Z,69.54
2023-02-19T02:22:08.242Z,69.39
2023-02-19T02:25:06.764Z,69.35
2023-02-19T02:27:55.256Z,69.27
2023-02-19T02:30:44.050Z,69.21
2023-02-19T02:33:21.913Z,69.10
2023-02-19T02:35:55.301Z,69.10
2023-02-19T02:38:29.508Z,69.09
2023-02-19T02:40:59.575Z,68.95
2023-02-19T02:43:29.552Z,68.82
2023-02-19T02:46:00.987Z,68.96
2023-02-19T02:48:38.479Z,68.99
2023-02-19T02:51:15.111Z,68.81
2023-02-19T02:54:28.833Z,68.83
2023-02-19T02:57:01.087Z,68.53
2023-02-19T02:59:35.482Z,68.46
2023-02-19T03:02:11.143Z,68.54
2023-02-19T03:05:03.674Z,68.49
2023-02-19T03:07:45.568Z,68.31
2023-02-19T03:10:18.742Z,68.45
2023-02-19T03:13:08.831Z,68.45
2023-02-19T03:16:00.169Z,68.22
2023-02-19T03:18:51.735Z,68.38
2023-02-19T03:21:25.080Z,68.26
2023-02-19T03:24:15.070Z,68.21
2023-02-19T03:26:54.123Z,68.10
2023-02-19T03:29:29.155Z,68.46
2023-02-19T03:32:10.339Z,68.15
2023-02-19T03:34:45.721Z,68.27
2023-02-19T03:37:21.784Z,67.98
2023-02-19T03:39:51.491Z,67.79
2023-02-19T03:42:29.310Z,67.89
2023-02-19T03:45:15.002Z,67.65
2023-02-19T03:47:53.218Z,67.63
2023-02-19T03:50:30.860Z,67.60
2023-02-19T03:53:07.102Z,67.42
2023-02-19T03:55:46.065Z,67.55
2023-02-19T03:58:23.842Z,67.43
2023-02-19T04:00:58.888Z,67.56
2023-02-19T04:03:39.144Z,67.78
2023-02-19T04:06:14.973Z,67.72
2023-02-19T04:08:50.539Z,67.65
2023-02-19T04:11:23.269Z,67.74
2023-02-19T04:14:01.877Z,67.68
2023-02-19T04:16:34.776Z,67.68
2023-02-19T04:19:09.873Z,67.83
2023-02-19T04:21:42.835Z,67.88
2023-02-19T04:24:15.537Z,67.88
2023-02-19T04:26:46.564Z,67.94
2023-02-19T04:29:15.849Z,68.05
2023-02-19T04:31:45.224Z,68.13
2023-02-19T04:34:14.440Z,68.02
2023-02-19T04:36:46.038Z,68.35
2023-02-19T04:39:15.363Z,68.55
2023-02-19T04:41:44.843Z,68.57
2023-02-19T04:44:13.997Z,68.65
2023-02-19T04:46:43.568Z,68.77
2023-02-19T04:49:13.079Z,68.63
2023-02-19T04:51:44.426Z,68.83
2023-02-19T04:54:13.571Z,68.62
2023-02-19T04:56:42.956Z,68.90
2023-02-19T04:59:12.442Z,69.02
2023-02-19T05:01:41.830Z,68.97
2023-02-19T05:04:11.218Z,69.16
2023-02-19T05:06:40.637Z,68.91
2023-02-19T05:09:11.295Z,68.98
2023-02-19T05:11:40.762Z,68.88
2023-02-19T05:14:09.931Z,69.10
2023-02-19T05:16:39.362Z,68.95
2023-02-19T05:19:08.398Z,69.15
2023-02-19T05:21:37.982Z,68.89
2023-02-19T05:24:07.490Z,69.04
2023-02-19T05:26:38.185Z,69.40
2023-02-19T05:29:07.411Z,69.16
2023-02-19T05:31:36.890Z,69.34
2023-02-19T05:34:06.027Z,69.65
2023-02-19T05:36:37.195Z,69.69
2023-02-19T05:39:07.586Z,69.95
2023-02-19T05:41:39.063Z,69.45
2023-02-19T05:44:08.382Z,69.68
2023-02-19T05:46:37.913Z,69.93
2023-02-19T05:49:06.990Z,69.61
2023-02-19T05:51:36.845Z,69.86
2023-02-19T05:54:06.197Z,69.83
2023-02-19T05:56:39.513Z,69.87
2023-02-19T05:59:16.123Z,69.82
2023-02-19T06:01:46.267Z,70.40
2023-02-19T06:04:17.292Z,70.05
2023-02-19T06:06:47.703Z,69.83
2023-02-19T06:09:16.905Z,70.23
2023-02-19T06:11:47.785Z,69.77
2023-02-19T06:14:17.134Z,69.91
2023-02-19T06:16:46.489Z,69.82
2023-02-19T06:19:15.591Z,69.75
2023-02-19T06:21:45.002Z,69.69
2023-02-19T06:24:14.068Z,70.14
2023-02-19T06:26:43.399Z,70.07
2023-02-19T06:29:14.037Z,70.10
2023-02-19T06:31:44.928Z,70.01
2023-02-19T06:34:14.524Z,69.75
2023-02-19T06:36:44.623Z,70.00
2023-02-19T06:39:13.826Z,70.08
2023-02-19T06:41:43.277Z,70.04
2023-02-19T06:44:13.864Z,70.05
2023-02-19T06:46:43.671Z,69.83
2023-02-19T06:49:12.734Z,70.32
2023-02-19T06:51:42.234Z,69.80
2023-02-19T06:54:11.542Z,69.98
2023-02-19T06:56:42.394Z,69.93
2023-02-19T06:59:16.905Z,69.78
2023-02-19T07:01:47.387Z,70.03
2023-02-19T07:04:16.809Z,70.13
2023-02-19T07:06:46.193Z,70.09
2023-02-19T07:09:15.641Z,69.95
2023-02-19T07:11:46.344Z,69.96
2023-02-19T07:14:18.735Z,70.03
2023-02-19T07:16:48.812Z,69.99
2023-02-19T07:19:18.110Z,70.27
2023-02-19T07:21:47.489Z,70.18
2023-02-19T07:24:16.820Z,70.14
2023-02-19T07:26:46.159Z,70.52
2023-02-19T07:29:17.268Z,70.28
2023-02-19T07:31:46.948Z,70.29
2023-02-19T07:34:16.020Z,70.21
2023-02-19T07:36:45.522Z,70.09
2023-02-19T07:39:15.749Z,70.24
2023-02-19T07:41:45.361Z,69.81
2023-02-19T07:44:29.195Z,70.08
2023-02-19T07:46:59.263Z,69.92
2023-02-19T07:49:28.849Z,69.80
2023-02-19T07:51:58.675Z,69.65
2023-02-19T07:54:28.062Z,69.75
2023-02-19T07:56:57.442Z,69.73
2023-02-19T07:59:29.252Z,70.06
2023-02-19T08:02:16.405Z,69.76
2023-02-19T08:04:45.829Z,69.65
2023-02-19T08:07:15.522Z,69.48
2023-02-19T08:09:44.905Z,69.42
2023-02-19T08:12:31.341Z,69.34
2023-02-19T08:15:02.001Z,69.48
2023-02-19T08:17:32.473Z,69.28
2023-02-19T08:20:01.781Z,69.21
2023-02-19T08:22:33.428Z,69.08
2023-02-19T08:25:02.557Z,68.97
2023-02-19T08:27:31.894Z,68.83
2023-02-19T08:30:02.487Z,68.89
2023-02-19T08:32:34.246Z,68.67
2023-02-19T08:35:05.887Z,68.56
2023-02-19T08:37:37.559Z,68.79
2023-02-19T08:40:09.447Z,68.67
2023-02-19T08:42:40.483Z,68.36
2023-02-19T08:45:13.634Z,68.48
2023-02-19T08:47:43.894Z,68.17
2023-02-19T08:50:13.759Z,68.04
2023-02-19T08:52:45.348Z,67.96
2023-02-19T08:55:15.142Z,68.09
2023-02-19T08:57:44.717Z,68.00
2023-02-19T09:00:17.074Z,67.92
2023-02-19T09:02:49.585Z,67.82
2023-02-19T09:05:19.091Z,67.85
2023-02-19T09:07:48.580Z,67.57
2023-02-19T09:10:17.891Z,67.17
2023-02-19T09:12:48.552Z,66.97
2023-02-19T09:15:19.949Z,67.51
2023-02-19T09:17:53.497Z,66.94
2023-02-19T09:20:22.839Z,66.30
2023-02-19T09:22:57.374Z,66.16
2023-02-19T09:25:27.313Z,65.94
2023-02-19T09:27:57.356Z,65.62
2023-02-19T09:30:29.480Z,65.64
2023-02-19T09:32:59.004Z,65.61
2023-02-19T09:35:28.089Z,65.58
2023-02-19T09:38:02.043Z,65.95
2023-02-19T09:40:33.338Z,65.66
2023-02-19T09:43:03.890Z,65.93
2023-02-19T09:45:36.066Z,65.88
2023-02-19T09:48:07.032Z,65.97
2023-02-19T09:50:39.882Z,65.84
2023-02-19T09:53:16.883Z,65.17
2023-02-19T09:55:46.742Z,65.08
2023-02-19T09:58:35.575Z,65.02
2023-02-19T10:01:12.136Z,65.10
2023-02-19T10:03:46.963Z,65.35
2023-02-19T10:06:20.634Z,65.12
2023-02-19T10:08:51.912Z,65.21
2023-02-19T10:11:21.231Z,63.66
2023-02-19T10:13:54.696Z,64.70
2023-02-19T10:16:29.327Z,63.46
2023-02-19T10:18:58.836Z,62.85
2023-02-19T10:21:29.459Z,62.13
2023-02-19T10:24:01.837Z,62.25
2023-02-19T10:26:34.867Z,61.63
2023-02-19T10:29:05.154Z,61.27
2023-02-19T10:31:35.927Z,61.13
2023-02-19T10:34:07.637Z,61.74
2023-02-19T10:36:39.868Z,61.37
2023-02-19T10:39:30.104Z,60.46
2023-02-19T10:42:00.531Z,60.90
2023-02-19T10:44:33.507Z,60.07
2023-02-19T10:47:04.278Z,59.61
2023-02-19T10:49:40.322Z,59.39
2023-02-19T10:52:17.863Z,58.77
2023-02-19T10:54:50.560Z,58.13
2023-02-19T10:57:34.546Z,57.30
2023-02-19T11:00:20.155Z,56.88
2023-02-19T11:03:15.410Z,58.03
2023-02-19T11:05:56.386Z,56.90
2023-02-19T11:08:26.487Z,56.35
2023-02-19T11:10:56.203Z,56.52
2023-02-19T11:13:32.520Z,56.22
2023-02-19T11:16:03.446Z,55.92
2023-02-19T11:18:36.392Z,58.00
2023-02-19T11:21:08.412Z,58.96
2023-02-19T11:23:45.198Z,57.27
2023-02-19T11:26:20.485Z,56.63
2023-02-19T11:28:59.736Z,56.89
2023-02-19T11:31:32.272Z,56.89
2023-02-19T11:34:05.047Z,56.27
2023-02-19T11:36:36.681Z,57.18
2023-02-19T11:39:22.695Z,56.35
2023-02-19T11:42:10.199Z,56.00
2023-02-19T11:44:48.854Z,56.81
2023-02-19T11:47:53.197Z,56.40
2023-02-19T11:50:30.536Z,57.59
2023-02-19T11:53:15.899Z,55.39
2023-02-19T11:55:58.570Z,55.48
2023-02-19T11:58:52.818Z,56.17
2023-02-19T12:01:31.896Z,53.76
2023-02-19T12:04:26.596Z,52.94
2023-02-19T12:07:07.658Z,51.53
2023-02-19T12:10:04.402Z,52.43
2023-02-19T12:12:51.696Z,52.87
2023-02-19T12:15:36.380Z,53.09
2023-02-19T12:18:36.267Z,53.08
2023-02-19T12:21:19.845Z,53.42
2023-02-19T12:24:19.318Z,51.62
2023-02-19T12:27:03.927Z,52.88
2023-02-19T12:29:48.971Z,53.31
2023-02-19T12:32:44.599Z,51.42
2023-02-19T12:35:52.490Z,52.72
2023-02-19T12:38:32.545Z,52.48
2023-02-19T12:41:15.899Z,53.80
2023-02-19T12:43:53.019Z,52.94
2023-02-19T12:46:29.497Z,52.93
2023-02-19T12:49:06.269Z,52.99
2023-02-19T12:51:44.575Z,52.95
2023-02-19T12:54:21.085Z,52.16
2023-02-19T12:56:57.088Z,52.37
2023-02-19T12:59:34.232Z,52.26
2023-02-19T13:02:14.002Z,52.47
2023-02-19T13:04:48.694Z,52.40
2023-02-19T13:07:25.571Z,52.08
2023-02-19T13:10:00.448Z,52.96
2023-02-19T13:12:34.882Z,52.51
2023-02-19T13:15:14.931Z,51.10
2023-02-19T13:17:51.822Z,49.67
2023-02-19T13:20:27.422Z,49.99
2023-02-19T13:23:22.901Z,48.55
2023-02-19T13:26:13.659Z,48.59
2023-02-19T13:29:01.321Z,50.28
2023-02-19T13:31:50.323Z,48.95
2023-02-19T13:34:32.464Z,49.47
2023-02-19T13:37:03.328Z,49.59
2023-02-19T13:39:36.366Z,49.16
2023-02-19T13:42:06.475Z,49.42
2023-02-19T13:44:42.986Z,49.66
2023-02-19T13:47:45.514Z,48.51
2023-02-19T13:50:22.709Z,48.97
2023-02-19T13:52:57.026Z,50.33
2023-02-19T13:55:50.100Z,48.76
2023-02-19T13:59:01.414Z,49.33
2023-02-19T14:02:17.811Z,49.82
2023-02-19T14:04:52.276Z,49.62
2023-02-19T14:07:50.499Z,48.32
2023-02-19T14:10:57.879Z,48.33
2023-02-19T14:14:06.854Z,48.37
2023-02-19T14:17:07.582Z,47.49
2023-02-19T14:19:54.175Z,46.70
2023-02-19T14:23:06.526Z,46.11
2023-02-19T14:25:44.825Z,46.08
2023-02-19T14:28:36.444Z,46.54
2023-02-19T14:31:25.657Z,46.57
2023-02-19T14:34:00.536Z,46.13
2023-02-19T14:36:45.488Z,45.74
2023-02-19T14:39:18.862Z,44.67
2023-02-19T14:41:51.024Z,45.22
2023-02-19T14:44:25.050Z,45.09
2023-02-19T14:46:59.149Z,45.99
2023-02-19T14:49:35.223Z,45.75
2023-02-19T14:52:14.357Z,45.50
2023-02-19T14:54:49.410Z,45.76
2023-02-19T14:57:24.510Z,46.93
2023-02-19T14:59:59.150Z,46.81
2023-02-19T15:02:30.126Z,46.69
2023-02-19T15:05:00.357Z,48.12
2023-02-19T15:07:34.403Z,46.64
2023-02-19T15:10:08.403Z,46.48
2023-02-19T15:12:47.440Z,46.61
2023-02-19T15:15:24.560Z,49.07
2023-02-19T15:17:55.651Z,48.56
2023-02-19T15:20:29.986Z,47.34
2023-02-19T15:23:06.243Z,46.87
2023-02-19T15:25:38.243Z,47.10
2023-02-19T15:28:29.577Z,47.09
2023-02-19T15:31:14.832Z,47.32
2023-02-19T15:33:54.666Z,46.68
2023-02-19T15:36:30.815Z,47.11
2023-02-19T15:39:03.817Z,47.26
2023-02-19T15:41:36.740Z,47.55
2023-02-19T15:44:24.576Z,47.77
2023-02-19T15:46:55.987Z,48.27
2023-02-19T15:49:31.190Z,48.58
2023-02-19T15:52:09.698Z,48.89
2023-02-19T15:54:49.656Z,49.72
2023-02-19T15:57:26.082Z,49.74
2023-02-19T16:00:03.458Z,49.58
2023-02-19T16:02:42.138Z,50.63
2023-02-19T16:05:17.950Z,50.88
2023-02-19T16:08:08.890Z,51.11
2023-02-19T16:10:40.672Z,51.31
2023-02-19T16:13:14.472Z,51.00
2023-02-19T16:16:00.290Z,51.19
2023-02-19T16:18:31.440Z,51.61
2023-02-19T16:21:01.600Z,51.79
2023-02-19T16:23:32.010Z,51.95
2023-02-19T16:26:05.648Z,52.16
2023-02-19T16:28:39.957Z,52.65
2023-02-19T16:31:11.209Z,52.77
2023-02-19T16:33:46.508Z,53.11
2023-02-19T16:36:27.446Z,53.40
2023-02-19T16:39:18.505Z,53.43
2023-02-19T16:42:19.744Z,53.76
2023-02-19T16:44:50.212Z,54.05
2023-02-19T16:47:31.020Z,54.18
2023-02-19T16:50:08.945Z,54.31
2023-02-19T16:52:51.058Z,54.69
2023-02-19T16:55:23.592Z,54.65
2023-02-19T16:57:56.751Z,54.91
2023-02-19T17:00:32.882Z,54.83
2023-02-19T17:03:09.273Z,54.92
2023-02-19T17:05:41.455Z,55.20
2023-02-19T17:08:34.284Z,55.35
2023-02-19T17:11:07.609Z,55.33
2023-02-19T17:13:38.634Z,55.45
2023-02-19T17:16:11.270Z,55.49
2023-02-19T17:18:42.874Z,55.43
2023-02-19T17:21:17.334Z,55.54
2023-02-19T17:23:46.955Z,55.76
2023-02-19T17:26:18.521Z,55.74
2023-02-19T17:28:49.278Z,55.82
2023-02-19T17:31:19.829Z,55.86
2023-02-19T17:33:50.138Z,56.18
2023-02-19T17:36:22.124Z,56.30
2023-02-19T17:38:51.531Z,56.45
2023-02-19T17:41:20.904Z,56.40
2023-02-19T17:43:53.866Z,56.27
2023-02-19T17:46:26.770Z,56.54
2023-02-19T17:48:56.742Z,56.57
2023-02-19T17:51:26.201Z,56.64
2023-02-19T17:53:55.537Z,56.78
2023-02-19T17:56:27.077Z,56.72
2023-02-19T17:58:58.373Z,57.04
2023-02-19T18:01:32.500Z,56.94
2023-02-19T18:04:01.782Z,57.02
2023-02-19T18:06:31.596Z,56.89
2023-02-19T18:09:00.942Z,56.83
2023-02-19T18:11:31.188Z,57.19
2023-02-19T18:14:02.042Z,57.44
2023-02-19T18:16:31.826Z,57.49
2023-02-19T18:19:02.439Z,57.51
2023-02-19T18:21:32.031Z,57.83
2023-02-19T18:24:04.009Z,58.14
2023-02-19T18:26:33.985Z,58.21
2023-02-19T18:29:06.523Z,58.58
2023-02-19T18:31:37.579Z,58.90
2023-02-19T18:34:07.911Z,58.82
2023-02-19T18:36:37.497Z,58.73
2023-02-19T18:39:06.773Z,58.96
2023-02-19T18:41:36.220Z,59.42
2023-02-19T18:44:07.023Z,59.31
2023-02-19T18:46:39.205Z,59.63
2023-02-19T18:49:09.030Z,59.31
2023-02-19T18:51:38.552Z,59.96
2023-02-19T18:54:08.192Z,59.96
2023-02-19T18:56:43.450Z,60.80
2023-02-19T18:59:15.008Z,60.63
2023-02-19T19:01:52.047Z,61.10
2023-02-19T19:04:25.779Z,61.38
2023-02-19T19:06:55.447Z,61.36
2023-02-19T19:09:24.514Z,61.57
2023-02-19T19:11:54.023Z,61.81
2023-02-19T19:14:24.723Z,61.79
2023-02-19T19:16:54.402Z,62.24
2023-02-19T19:19:23.735Z,62.79
2023-02-19T19:21:54.225Z,62.81
2023-02-19T19:24:24.911Z,62.63
2023-02-19T19:26:54.942Z,63.01
2023-02-19T19:29:27.366Z,63.40
2023-02-19T19:31:57.325Z,62.69
2023-02-19T19:34:26.386Z,63.29
2023-02-19T19:36:55.922Z,63.63
2023-02-19T19:39:26.347Z,63.46
2023-02-19T19:41:56.945Z,63.52
2023-02-19T19:44:29.862Z,63.30
2023-02-19T19:46:59.863Z,63.63
2023-02-19T19:49:30.430Z,63.21
2023-02-19T19:52:01.187Z,63.87
2023-02-19T19:54:31.750Z,63.67
2023-02-19T19:57:01.836Z,64.12
2023-02-19T19:59:35.044Z,64.11
2023-02-19T20:02:04.841Z,63.48
2023-02-19T20:04:34.290Z,63.98
2023-02-19T20:07:06.375Z,64.34
2023-02-19T20:09:35.957Z,64.52
2023-02-19T20:12:05.674Z,64.10
2023-02-19T20:14:36.310Z,64.02
2023-02-19T20:17:08.159Z,63.81
2023-02-19T20:19:39.810Z,63.97
2023-02-19T20:22:09.580Z,63.34
2023-02-19T20:24:39.087Z,64.02
2023-02-19T20:27:11.206Z,64.04
2023-02-19T20:29:41.902Z,64.12
2023-02-19T20:32:15.122Z,64.23
2023-02-19T20:34:44.646Z,64.45
2023-02-19T20:37:14.114Z,64.26
2023-02-19T20:39:45.367Z,64.28
2023-02-19T20:42:17.004Z,64.55
2023-02-19T20:44:48.216Z,64.55
2023-02-19T20:47:17.862Z,64.83
2023-02-19T20:49:47.626Z,65.04
2023-02-19T20:52:19.054Z,64.92
2023-02-19T20:54:48.812Z,64.84
2023-02-19T20:57:18.518Z,65.31
2023-02-19T20:59:49.330Z,65.32
2023-02-19T21:02:24.959Z,66.00
2023-02-19T21:04:54.394Z,66.25
2023-02-19T21:07:24.264Z,66.48
2023-02-19T21:09:56.194Z,66.59
2023-02-19T21:12:25.654Z,66.47
2023-02-19T21:14:56.096Z,66.53
2023-02-19T21:17:25.794Z,66.36
2023-02-19T21:19:55.013Z,66.30
2023-02-19T21:22:24.478Z,66.54
2023-02-19T21:24:54.158Z,66.49
2023-02-19T21:27:23.690Z,66.70
2023-02-19T21:29:53.177Z,66.73
2023-02-19T21:32:24.453Z,66.67
2023-02-19T21:34:53.741Z,66.76
2023-02-19T21:37:23.063Z,66.87
2023-02-19T21:39:54.876Z,67.12
2023-02-19T21:42:24.348Z,66.68
2023-02-19T21:44:53.542Z,66.89
2023-02-19T21:47:24.393Z,67.10
2023-02-19T21:49:53.860Z,66.66
2023-02-19T21:52:23.902Z,66.75
2023-02-19T21:54:53.355Z,66.71
2023-02-19T21:57:22.740Z,66.59
2023-02-19T21:59:51.985Z,66.69
2023-02-19T22:02:22.388Z,66.65
2023-02-19T22:04:56.188Z,66.81
2023-02-19T22:07:26.779Z,66.82
2023-02-19T22:09:55.975Z,67.00
2023-02-19T22:12:25.340Z,67.26
2023-02-19T22:14:54.515Z,67.48
2023-02-19T22:17:23.991Z,67.31
2023-02-19T22:19:54.915Z,67.85
2023-02-19T22:22:24.524Z,67.78
2023-02-19T22:24:53.594Z,67.64
2023-02-19T22:27:24.586Z,67.85
2023-02-19T22:29:53.780Z,67.93
2023-02-19T22:32:23.518Z,68.58
2023-02-19T22:34:54.204Z,68.32
2023-02-19T22:37:23.746Z,68.49
2023-02-19T22:39:52.792Z,68.40
2023-02-19T22:42:23.440Z,68.11
2023-02-19T22:44:52.616Z,68.44
2023-02-19T22:47:22.175Z,68.89
2023-02-19T22:49:51.512Z,69.05
2023-02-19T22:52:24.021Z,69.27
2023-02-19T22:54:55.116Z,69.26
2023-02-19T22:57:24.568Z,69.50
2023-02-19T22:59:53.622Z,69.57
2023-02-19T23:02:23.062Z,69.67
2023-02-19T23:04:52.375Z,69.71
2023-02-19T23:07:23.247Z,69.91
2023-02-19T23:09:52.479Z,70.11
2023-02-19T23:12:22.128Z,69.88
2023-02-19T23:14:51.254Z,69.81
2023-02-19T23:17:21.908Z,69.79
2023-02-19T23:19:51.113Z,69.73
2023-02-19T23:22:22.160Z,69.73
2023-02-19T23:24:51.387Z,69.79
2023-02-19T23:27:20.777Z,69.80
2023-02-19T23:29:50.074Z,69.46
2023-02-19T23:32:20.974Z,69.36
2023-02-19T23:34:50.692Z,69.32
2023-02-19T23:37:19.869Z,69.79
2023-02-19T23:39:50.288Z,69.56
2023-02-19T23:42:19.878Z,69.47
2023-02-19T23:44:49.017Z,69.27
2023-02-19T23:47:18.397Z,69.15
2023-02-19T23:49:47.447Z,69.24
2023-02-19T23:52:17.834Z,69.21
2023-02-19T23:54:47.145Z,69.25
2023-02-19T23:57:17.872Z,69.14
2023-02-19T23:59:49.258Z,68.95
